Terminal Aerodrome Forecast
Issued by NWS Cleveland, OH

Home | Current Version | Previous Version | Graphics & Text | Print | Product List | Glossary Off
Versions: 1 2 3 4 5 6 7 8 9 10 11 12 13 14 15 16 17 18 19 20 21 22

000
FTUS41 KCLE 241400 AAA
TAFYNG
TAF AMD
KYNG 241405Z 2414/2512 20018G28KT P6SM SCT015 OVC025
     FM241500 20020G30KT P6SM SCT025 BKN060
     FM241700 22028G40KT P6SM VCSH OVC035
      TEMPO 2418/2421 3SM -SHRA
     FM250000 24022G32KT P6SM OVC025
     FM250800 24015G25KT P6SM OVC035=

USA.gov is the U.S. government's official web portal to all federal, state and local government web resources and services.